• Join FlightAware (Why Join?)
  • Login
  • US Flag 
04:11PM EDT


 

Airport Tracker/Info


-or-


 

Live Flight TrackerFlight Track Log ✈ SWA4138 ✈ 05-Apr-2014 ✈ KHOU - KCRP

Flight Track Log - Related Links

Times and Time Zones

All times are in EDT time to prevent confusion due to time zone crossing. See the SWA4138 flight status page for this flight to view local times or setup timezone preferences in your user account.

Time Position Orientation Groundspeed Altitude Reporting Facility
EDT Latitude Longitude Course Direction KTS MPH feet Rate Location/Type
08:15PM 29.6258 -95.2597 194° South 168 193 1,200  Level Houston Center
08:16PM 29.5728 -95.2750 194° South 250 288 2,600 2,340 Climbing Houston Center
08:17PM 29.5233 -95.3397 229° Southwest 271 312 6,100 4,020 Climbing Houston Center
08:18PM 29.4656 -95.4133 228° Southwest 260 299 10,800 3,900 Climbing Houston Center
08:19PM 29.4164 -95.4761 228° Southwest 261 300 14,100 2,940 Climbing Houston Center
08:20PM 29.3642 -95.5444 229° Southwest 283 326 16,900 2,700 Climbing Houston Center
08:21PM 29.3067 -95.6144 227° Southwest 296 341 19,700 2,580 Climbing Houston Center
08:22PM 29.2475 -95.6881 227° Southwest 311 358 22,200 2,280 Climbing Houston Center
08:23PM 29.1861 -95.7642 227° Southwest 321 369 24,400 2,100 Climbing Houston Center
08:24PM 29.1222 -95.8431 227° Southwest 332 382 26,600 1,740 Climbing Houston Center
08:25PM 29.0569 -95.9242 227° Southwest 344 396 28,000 660 Climbing Houston Center
08:26PM 28.9761 -96.0233 227° Southwest 370 426 28,000  Level Houston Center
08:27PM 28.9056 -96.1083 227° Southwest 370 426 28,000  Level Houston Center
08:28PM 28.8372 -96.1933 227° Southwest 368 423 28,000  Level Houston Center
08:29PM 28.7656 -96.2817 227° Southwest 373 429 28,000  Level Houston Center
08:30PM 28.6933 -96.3689 227° Southwest 375 432 28,000 -480 Level Houston Center
08:31PM 28.6222 -96.4558 227° Southwest 375 432 27,100 -1,920 Descending Houston Center
08:32PM 28.5528 -96.5400 227° Southwest 366 421 24,100 -2,820 Descending Houston Center
08:33PM 28.4833 -96.6228 226° Southwest 363 418 21,400 -2,700 Descending Houston Center
08:34PM 28.4164 -96.7064 228° Southwest 361 415 18,700 -3,120 Descending Houston Center
08:35PM 28.3806 -96.7475 225° Southwest 352 405 17,200 -3,180 Descending Houston Center
08:35PM 28.3453 -96.7908 227° Southwest 339 390 15,700 -1,920 Descending Houston Center
08:36PM 28.2872 -96.8806 234° Southwest 322 371 14,000 -1,260 Descending Houston Center
08:38PM 28.2428 -96.9722 241° Southwest 331 381 13,100 -1,020 Descending Houston Center
08:39PM 28.1967 -97.0678 241° Southwest 332 382 12,000 -1,200 Descending Houston Center
08:40PM 28.1561 -97.1506 241° Southwest 288 331 10,700 -1,200 Descending Houston Center
08:41PM 28.1222 -97.2244 243° Southwest 262 302 9,700 -1,020 Descending Houston Center
08:42PM 28.0842 -97.3008 241° Southwest 265 305 8,700 -1,020 Descending Houston Center
08:43PM 28.0497 -97.3697 240° Southwest 266 306 7,700 -1,260 Descending Houston Center
08:44PM 28.0119 -97.4483 241° Southwest 272 313 6,200 -1,620 Descending Houston Center
08:45PM 27.9739 -97.5247 241° Southwest 269 310 4,500 -1,380 Descending Houston Center
08:46PM 27.9300 -97.5853 231° Southwest 251 289 3,500 -900 Descending Houston Center
08:47PM 27.8817 -97.6250 216° Southwest 207 238 2,800 -840 Descending Houston Center
08:48PM 27.8442 -97.5900 140° Southeast 167 192 1,900 -900 Descending Houston Center
08:49PM 27.8175 -97.5581 133° Southeast 116 133 1,100 -720 Descending Houston Center
08:50PM 27.7917 -97.5308 137° Southeast 125 144 500 -420 Descending Houston Center
08:51PM 27.7628 -97.5000 137° Southeast 127 146 300 -180 Descending Houston Center